sensor_id;sensor_type;location;lat;lon;timestamp;temperature;humidity
78366;HTU21D;67641;59.864;30.464;2024-01-25T00:02:17;14.69;68.35
78366;HTU21D;67641;59.864;30.464;2024-01-25T00:04:43;14.68;68.25
78366;HTU21D;67641;59.864;30.464;2024-01-25T00:07:10;14.73;68.23
78366;HTU21D;67641;59.864;30.464;2024-01-25T00:09:36;14.74;68.09
78366;HTU21D;67641;59.864;30.464;2024-01-25T00:12:03;14.73;68.31
78366;HTU21D;67641;59.864;30.464;2024-01-25T00:14:30;14.72;68.27
78366;HTU21D;67641;59.864;30.464;2024-01-25T00:16:56;14.69;68.49
78366;HTU21D;67641;59.864;30.464;2024-01-25T00:19:23;14.69;68.72
78366;HTU21D;67641;59.864;30.464;2024-01-25T00:21:49;14.66;68.55
78366;HTU21D;67641;59.864;30.464;2024-01-25T00:24:16;14.64;68.75
78366;HTU21D;67641;59.864;30.464;2024-01-25T00:26:43;14.58;69.18
78366;HTU21D;67641;59.864;30.464;2024-01-25T00:29:09;14.55;69.45
78366;HTU21D;67641;59.864;30.464;2024-01-25T00:31:36;14.49;69.65
78366;HTU21D;67641;59.864;30.464;2024-01-25T00:34:03;14.48;69.80
78366;HTU21D;67641;59.864;30.464;2024-01-25T00:36:29;14.49;69.95
78366;HTU21D;67641;59.864;30.464;2024-01-25T00:38:56;14.51;69.97
78366;HTU21D;67641;59.864;30.464;2024-01-25T00:41:23;14.53;69.98
78366;HTU21D;67641;59.864;30.464;2024-01-25T00:43:50;14.52;70.21
78366;HTU21D;67641;59.864;30.464;2024-01-25T00:46:18;14.52;70.17
78366;HTU21D;67641;59.864;30.464;2024-01-25T00:48:44;14.51;70.39
78366;HTU21D;67641;59.864;30.464;2024-01-25T00:51:15;14.45;70.43
78366;HTU21D;67641;59.864;30.464;2024-01-25T00:53:44;14.45;70.53
78366;HTU21D;67641;59.864;30.464;2024-01-25T00:56:11;14.40;70.56
78366;HTU21D;67641;59.864;30.464;2024-01-25T00:58:38;14.38;70.90
78366;HTU21D;67641;59.864;30.464;2024-01-25T01:01:05;14.35;70.93
78366;HTU21D;67641;59.864;30.464;2024-01-25T01:03:32;14.32;70.98
78366;HTU21D;67641;59.864;30.464;2024-01-25T01:05:58;14.30;71.13
78366;HTU21D;67641;59.864;30.464;2024-01-25T01:08:25;14.35;70.90
78366;HTU21D;67641;59.864;30.464;2024-01-25T01:10:52;14.36;70.84
78366;HTU21D;67641;59.864;30.464;2024-01-25T01:13:18;14.35;70.88
78366;HTU21D;67641;59.864;30.464;2024-01-25T01:15:45;14.37;70.46
78366;HTU21D;67641;59.864;30.464;2024-01-25T01:18:11;14.40;70.72
78366;HTU21D;67641;59.864;30.464;2024-01-25T01:20:38;14.41;70.29
78366;HTU21D;67641;59.864;30.464;2024-01-25T01:23:05;14.44;70.63
78366;HTU21D;67641;59.864;30.464;2024-01-25T01:25:31;14.48;70.54
78366;HTU21D;67641;59.864;30.464;2024-01-25T01:27:58;14.49;69.98
78366;HTU21D;67641;59.864;30.464;2024-01-25T01:30:24;14.52;69.81
78366;HTU21D;67641;59.864;30.464;2024-01-25T01:32:50;14.53;70.23
78366;HTU21D;67641;59.864;30.464;2024-01-25T01:35:17;14.55;70.35
78366;HTU21D;67641;59.864;30.464;2024-01-25T01:37:43;14.58;70.39
78366;HTU21D;67641;59.864;30.464;2024-01-25T01:40:10;14.60;70.25
78366;HTU21D;67641;59.864;30.464;2024-01-25T01:42:36;14.63;70.13
78366;HTU21D;67641;59.864;30.464;2024-01-25T01:45:03;14.66;70.06
78366;HTU21D;67641;59.864;30.464;2024-01-25T01:47:30;14.69;70.23
78366;HTU21D;67641;59.864;30.464;2024-01-25T01:49:57;14.69;70.18
78366;HTU21D;67641;59.864;30.464;2024-01-25T01:52:24;14.70;70.31
78366;HTU21D;67641;59.864;30.464;2024-01-25T01:54:50;14.72;70.35
78366;HTU21D;67641;59.864;30.464;2024-01-25T01:57:17;14.71;69.97
78366;HTU21D;67641;59.864;30.464;2024-01-25T01:59:43;14.71;69.50
78366;HTU21D;67641;59.864;30.464;2024-01-25T02:02:10;14.73;69.66
78366;HTU21D;67641;59.864;30.464;2024-01-25T02:04:36;14.74;69.89
78366;HTU21D;67641;59.864;30.464;2024-01-25T02:07:03;14.74;70.23
78366;HTU21D;67641;59.864;30.464;2024-01-25T02:09:30;14.75;70.37
78366;HTU21D;67641;59.864;30.464;2024-01-25T02:12:01;14.74;70.05
78366;HTU21D;67641;59.864;30.464;2024-01-25T02:14:28;14.77;70.17
78366;HTU21D;67641;59.864;30.464;2024-01-25T02:16:54;14.74;70.06
78366;HTU21D;67641;59.864;30.464;2024-01-25T02:19:21;14.72;69.69
78366;HTU21D;67641;59.864;30.464;2024-01-25T02:21:49;14.70;69.60
78366;HTU21D;67641;59.864;30.464;2024-01-25T02:24:15;14.64;69.61
78366;HTU21D;67641;59.864;30.464;2024-01-25T02:26:42;14.55;69.90
78366;HTU21D;67641;59.864;30.464;2024-01-25T02:29:08;14.52;70.37
78366;HTU21D;67641;59.864;30.464;2024-01-25T02:31:35;14.54;70.91
78366;HTU21D;67641;59.864;30.464;2024-01-25T02:34:02;14.55;70.77
78366;HTU21D;67641;59.864;30.464;2024-01-25T02:36:28;14.53;70.33
78366;HTU21D;67641;59.864;30.464;2024-01-25T02:38:55;14.50;70.71
78366;HTU21D;67641;59.864;30.464;2024-01-25T02:41:21;14.49;71.19
78366;HTU21D;67641;59.864;30.464;2024-01-25T02:43:47;14.52;71.52
78366;HTU21D;67641;59.864;30.464;2024-01-25T02:46:14;14.55;71.52
78366;HTU21D;67641;59.864;30.464;2024-01-25T02:48:40;14.57;71.56
78366;HTU21D;67641;59.864;30.464;2024-01-25T02:51:07;14.59;71.12
78366;HTU21D;67641;59.864;30.464;2024-01-25T02:53:33;14.62;71.21
78366;HTU21D;67641;59.864;30.464;2024-01-25T02:56:00;14.63;71.36
78366;HTU21D;67641;59.864;30.464;2024-01-25T02:58:26;14.62;71.19
78366;HTU21D;67641;59.864;30.464;2024-01-25T03:00:52;14.65;71.26
78366;HTU21D;67641;59.864;30.464;2024-01-25T03:03:19;14.62;71.26
78366;HTU21D;67641;59.864;30.464;2024-01-25T03:05:45;14.60;71.31
78366;HTU21D;67641;59.864;30.464;2024-01-25T03:08:12;14.60;71.40
78366;HTU21D;67641;59.864;30.464;2024-01-25T03:10:38;14.64;71.47
78366;HTU21D;67641;59.864;30.464;2024-01-25T03:13:04;14.63;71.52
78366;HTU21D;67641;59.864;30.464;2024-01-25T03:15:31;14.63;71.80
78366;HTU21D;67641;59.864;30.464;2024-01-25T03:18:01;14.64;71.85
78366;HTU21D;67641;59.864;30.464;2024-01-25T03:20:27;14.63;71.88
78366;HTU21D;67641;59.864;30.464;2024-01-25T03:22:54;14.62;71.96
78366;HTU21D;67641;59.864;30.464;2024-01-25T03:25:20;14.63;71.95
78366;HTU21D;67641;59.864;30.464;2024-01-25T03:27:46;14.64;72.02
78366;HTU21D;67641;59.864;30.464;2024-01-25T03:30:13;14.65;72.30
78366;HTU21D;67641;59.864;30.464;2024-01-25T03:32:40;14.66;72.40
78366;HTU21D;67641;59.864;30.464;2024-01-25T03:35:06;14.65;72.29
78366;HTU21D;67641;59.864;30.464;2024-01-25T03:37:33;14.65;72.33
78366;HTU21D;67641;59.864;30.464;2024-01-25T03:39:59;14.65;72.20
78366;HTU21D;67641;59.864;30.464;2024-01-25T03:42:26;14.66;72.34
78366;HTU21D;67641;59.864;30.464;2024-01-25T03:44:52;14.64;72.40
78366;HTU21D;67641;59.864;30.464;2024-01-25T03:47:19;14.59;72.02
78366;HTU21D;67641;59.864;30.464;2024-01-25T03:49:45;14.58;72.09
78366;HTU21D;67641;59.864;30.464;2024-01-25T03:52:12;14.58;71.90
78366;HTU21D;67641;59.864;30.464;2024-01-25T03:54:38;14.57;72.22
78366;HTU21D;67641;59.864;30.464;2024-01-25T03:57:05;14.52;72.12
78366;HTU21D;67641;59.864;30.464;2024-01-25T03:59:31;14.49;72.48
78366;HTU21D;67641;59.864;30.464;2024-01-25T04:01:58;14.45;72.40
78366;HTU21D;67641;59.864;30.464;2024-01-25T04:04:24;14.42;72.48
78366;HTU21D;67641;59.864;30.464;2024-01-25T04:06:51;14.36;73.11
78366;HTU21D;67641;59.864;30.464;2024-01-25T04:09:17;14.32;73.67
78366;HTU21D;67641;59.864;30.464;2024-01-25T04:11:43;14.25;74.18
78366;HTU21D;67641;59.864;30.464;2024-01-25T04:14:10;14.20;74.38
78366;HTU21D;67641;59.864;30.464;2024-01-25T04:16:36;14.13;74.58
78366;HTU21D;67641;59.864;30.464;2024-01-25T04:19:03;14.09;74.87
78366;HTU21D;67641;59.864;30.464;2024-01-25T04:21:29;14.06;75.18
78366;HTU21D;67641;59.864;30.464;2024-01-25T04:23:56;14.00;75.60
78366;HTU21D;67641;59.864;30.464;2024-01-25T04:26:22;13.97;75.83
78366;HTU21D;67641;59.864;30.464;2024-01-25T04:28:49;13.96;75.97
78366;HTU21D;67641;59.864;30.464;2024-01-25T04:31:16;13.97;76.05
78366;HTU21D;67641;59.864;30.464;2024-01-25T04:33:43;13.95;75.99
78366;HTU21D;67641;59.864;30.464;2024-01-25T04:36:09;13.94;76.15
78366;HTU21D;67641;59.864;30.464;2024-01-25T04:38:36;13.94;76.04
78366;HTU21D;67641;59.864;30.464;2024-01-25T04:41:02;13.92;76.09
78366;HTU21D;67641;59.864;30.464;2024-01-25T04:43:29;13.93;76.41
78366;HTU21D;67641;59.864;30.464;2024-01-25T04:46:00;13.92;76.64
78366;HTU21D;67641;59.864;30.464;2024-01-25T04:48:26;13.88;76.02
78366;HTU21D;67641;59.864;30.464;2024-01-25T04:50:53;13.85;76.05
78366;HTU21D;67641;59.864;30.464;2024-01-25T04:53:19;13.85;76.18
78366;HTU21D;67641;59.864;30.464;2024-01-25T04:55:45;13.89;76.40
78366;HTU21D;67641;59.864;30.464;2024-01-25T04:58:12;13.89;76.35
78366;HTU21D;67641;59.864;30.464;2024-01-25T05:00:38;13.90;76.46
78366;HTU21D;67641;59.864;30.464;2024-01-25T05:03:05;13.95;76.38
78366;HTU21D;67641;59.864;30.464;2024-01-25T05:05:32;13.99;76.38
78366;HTU21D;67641;59.864;30.464;2024-01-25T05:07:58;14.03;76.36
78366;HTU21D;67641;59.864;30.464;2024-01-25T05:10:25;14.05;76.05
78366;HTU21D;67641;59.864;30.464;2024-01-25T05:12:52;14.11;75.91
78366;HTU21D;67641;59.864;30.464;2024-01-25T05:15:18;14.17;75.70
78366;HTU21D;67641;59.864;30.464;2024-01-25T05:17:45;14.23;75.55
78366;HTU21D;67641;59.864;30.464;2024-01-25T05:20:11;14.33;75.37
78366;HTU21D;67641;59.864;30.464;2024-01-25T05:22:39;14.42;74.94
78366;HTU21D;67641;59.864;30.464;2024-01-25T05:25:08;14.55;74.68
78366;HTU21D;67641;59.864;30.464;2024-01-25T05:27:34;14.71;74.07
78366;HTU21D;67641;59.864;30.464;2024-01-25T05:30:01;14.86;73.26
78366;HTU21D;67641;59.864;30.464;2024-01-25T05:32:27;15.04;72.68
78366;HTU21D;67641;59.864;30.464;2024-01-25T05:34:54;15.28;70.97
78366;HTU21D;67641;59.864;30.464;2024-01-25T05:37:20;15.51;69.78
78366;HTU21D;67641;59.864;30.464;2024-01-25T05:39:47;15.71;69.17
78366;HTU21D;67641;59.864;30.464;2024-01-25T05:42:14;15.78;68.50
78366;HTU21D;67641;59.864;30.464;2024-01-25T05:44:40;15.71;68.48
78366;HTU21D;67641;59.864;30.464;2024-01-25T05:47:07;15.62;69.21
78366;HTU21D;67641;59.864;30.464;2024-01-25T05:49:33;15.59;69.10
78366;HTU21D;67641;59.864;30.464;2024-01-25T05:52:00;15.53;69.08
78366;HTU21D;67641;59.864;30.464;2024-01-25T05:54:26;15.52;69.20
78366;HTU21D;67641;59.864;30.464;2024-01-25T05:56:52;15.54;69.73
78366;HTU21D;67641;59.864;30.464;2024-01-25T05:59:19;15.58;70.06
78366;HTU21D;67641;59.864;30.464;2024-01-25T06:01:45;15.61;69.98
78366;HTU21D;67641;59.864;30.464;2024-01-25T06:04:12;15.65;69.84
78366;HTU21D;67641;59.864;30.464;2024-01-25T06:06:39;15.65;68.97
78366;HTU21D;67641;59.864;30.464;2024-01-25T06:09:05;15.69;68.85
78366;HTU21D;67641;59.864;30.464;2024-01-25T06:11:31;15.75;68.61
78366;HTU21D;67641;59.864;30.464;2024-01-25T06:13:59;15.82;68.92
78366;HTU21D;67641;59.864;30.464;2024-01-25T06:16:25;16.49;67.55
78366;HTU21D;67641;59.864;30.464;2024-01-25T06:18:52;17.49;63.90
78366;HTU21D;67641;59.864;30.464;2024-01-25T06:21:18;18.62;60.54
78366;HTU21D;67641;59.864;30.464;2024-01-25T06:23:45;19.63;57.14
78366;HTU21D;67641;59.864;30.464;2024-01-25T06:26:11;20.68;54.46
78366;HTU21D;67641;59.864;30.464;2024-01-25T06:28:37;21.58;51.52
78366;HTU21D;67641;59.864;30.464;2024-01-25T06:31:04;22.44;49.34
78366;HTU21D;67641;59.864;30.464;2024-01-25T06:33:30;23.24;47.21
78366;HTU21D;67641;59.864;30.464;2024-01-25T06:35:57;23.97;44.87
78366;HTU21D;67641;59.864;30.464;2024-01-25T06:38:24;24.59;43.34
78366;HTU21D;67641;59.864;30.464;2024-01-25T06:40:50;25.20;41.71
78366;HTU21D;67641;59.864;30.464;2024-01-25T06:43:17;25.63;40.33
78366;HTU21D;67641;59.864;30.464;2024-01-25T06:45:43;25.97;39.60
78366;HTU21D;67641;59.864;30.464;2024-01-25T06:48:10;26.13;38.49
78366;HTU21D;67641;59.864;30.464;2024-01-25T06:50:36;26.60;37.89
78366;HTU21D;67641;59.864;30.464;2024-01-25T06:53:04;27.32;36.48
78366;HTU21D;67641;59.864;30.464;2024-01-25T06:55:30;27.88;35.67
78366;HTU21D;67641;59.864;30.464;2024-01-25T06:57:57;28.13;35.25
78366;HTU21D;67641;59.864;30.464;2024-01-25T07:00:23;28.55;34.30
78366;HTU21D;67641;59.864;30.464;2024-01-25T07:02:50;28.83;32.91
78366;HTU21D;67641;59.864;30.464;2024-01-25T07:05:16;28.37;34.11
78366;HTU21D;67641;59.864;30.464;2024-01-25T07:07:43;28.10;34.79
78366;HTU21D;67641;59.864;30.464;2024-01-25T07:10:09;27.96;35.97
78366;HTU21D;67641;59.864;30.464;2024-01-25T07:12:36;27.75;35.90
78366;HTU21D;67641;59.864;30.464;2024-01-25T07:15:02;27.43;36.77
78366;HTU21D;67641;59.864;30.464;2024-01-25T07:17:29;27.17;37.29
78366;HTU21D;67641;59.864;30.464;2024-01-25T07:19:56;26.55;38.72
78366;HTU21D;67641;59.864;30.464;2024-01-25T07:22:22;26.23;39.49
78366;HTU21D;67641;59.864;30.464;2024-01-25T07:24:49;26.43;39.30
78366;HTU21D;67641;59.864;30.464;2024-01-25T07:27:15;26.41;39.36
78366;HTU21D;67641;59.864;30.464;2024-01-25T07:29:45;26.06;40.68
78366;HTU21D;67641;59.864;30.464;2024-01-25T07:32:12;26.12;40.41
78366;HTU21D;67641;59.864;30.464;2024-01-25T07:34:38;25.87;41.07
78366;HTU21D;67641;59.864;30.464;2024-01-25T07:37:05;26.11;40.83
78366;HTU21D;67641;59.864;30.464;2024-01-25T07:39:31;26.61;39.41
78366;HTU21D;67641;59.864;30.464;2024-01-25T07:41:58;26.64;39.84
78366;HTU21D;67641;59.864;30.464;2024-01-25T07:44:24;27.04;39.14
78366;HTU21D;67641;59.864;30.464;2024-01-25T07:46:51;26.90;39.19
78366;HTU21D;67641;59.864;30.464;2024-01-25T07:49:17;26.87;39.88
78366;HTU21D;67641;59.864;30.464;2024-01-25T07:51:44;27.06;39.13
78366;HTU21D;67641;59.864;30.464;2024-01-25T07:54:12;27.06;38.96
78366;HTU21D;67641;59.864;30.464;2024-01-25T07:56:39;26.66;40.09
78366;HTU21D;67641;59.864;30.464;2024-01-25T07:59:06;26.66;40.10
78366;HTU21D;67641;59.864;30.464;2024-01-25T08:01:33;26.62;40.13
78366;HTU21D;67641;59.864;30.464;2024-01-25T08:03:59;26.69;39.95
78366;HTU21D;67641;59.864;30.464;2024-01-25T08:06:26;26.17;40.88
78366;HTU21D;67641;59.864;30.464;2024-01-25T08:08:53;26.21;41.27
78366;HTU21D;67641;59.864;30.464;2024-01-25T08:11:20;26.37;41.41
78366;HTU21D;67641;59.864;30.464;2024-01-25T08:13:47;26.61;40.88
78366;HTU21D;67641;59.864;30.464;2024-01-25T08:16:14;26.38;40.74
78366;HTU21D;67641;59.864;30.464;2024-01-25T08:18:47;26.36;41.10
78366;HTU21D;67641;59.864;30.464;2024-01-25T08:21:14;25.66;43.05
78366;HTU21D;67641;59.864;30.464;2024-01-25T08:23:41;25.51;43.38
78366;HTU21D;67641;59.864;30.464;2024-01-25T08:26:08;24.92;41.66
78366;HTU21D;67641;59.864;30.464;2024-01-25T08:28:35;24.30;43.16
78366;HTU21D;67641;59.864;30.464;2024-01-25T08:31:02;24.13;42.91
78366;HTU21D;67641;59.864;30.464;2024-01-25T08:33:29;23.86;43.30
78366;HTU21D;67641;59.864;30.464;2024-01-25T08:35:55;23.51;43.83
78366;HTU21D;67641;59.864;30.464;2024-01-25T08:38:22;23.51;43.36
78366;HTU21D;67641;59.864;30.464;2024-01-25T08:40:48;23.76;43.03
78366;HTU21D;67641;59.864;30.464;2024-01-25T08:43:15;23.79;42.59
78366;HTU21D;67641;59.864;30.464;2024-01-25T08:45:42;23.73;43.29
78366;HTU21D;67641;59.864;30.464;2024-01-25T08:48:09;23.75;42.96
78366;HTU21D;67641;59.864;30.464;2024-01-25T08:50:36;23.65;42.33
78366;HTU21D;67641;59.864;30.464;2024-01-25T08:53:02;23.74;43.32
78366;HTU21D;67641;59.864;30.464;2024-01-25T08:55:31;24.08;42.23
78366;HTU21D;67641;59.864;30.464;2024-01-25T08:57:59;24.28;41.19
78366;HTU21D;67641;59.864;30.464;2024-01-25T09:00:25;24.72;40.43
78366;HTU21D;67641;59.864;30.464;2024-01-25T09:02:53;24.72;40.12
78366;HTU21D;67641;59.864;30.464;2024-01-25T09:05:20;24.91;40.45
78366;HTU21D;67641;59.864;30.464;2024-01-25T09:07:46;25.67;39.39
78366;HTU21D;67641;59.864;30.464;2024-01-25T09:10:13;25.75;40.01
78366;HTU21D;67641;59.864;30.464;2024-01-25T09:12:41;25.76;39.69
78366;HTU21D;67641;59.864;30.464;2024-01-25T09:15:08;26.11;38.32
78366;HTU21D;67641;59.864;30.464;2024-01-25T09:17:34;25.99;39.27
78366;HTU21D;67641;59.864;30.464;2024-01-25T09:20:01;26.02;38.98
78366;HTU21D;67641;59.864;30.464;2024-01-25T09:22:29;26.03;37.90
78366;HTU21D;67641;59.864;30.464;2024-01-25T09:24:55;25.75;38.10
78366;HTU21D;67641;59.864;30.464;2024-01-25T09:27:22;25.87;37.97
78366;HTU21D;67641;59.864;30.464;2024-01-25T09:29:49;26.11;37.42
78366;HTU21D;67641;59.864;30.464;2024-01-25T09:32:15;26.25;36.26
78366;HTU21D;67641;59.864;30.464;2024-01-25T09:34:42;26.50;35.64
78366;HTU21D;67641;59.864;30.464;2024-01-25T09:37:08;26.71;35.66
78366;HTU21D;67641;59.864;30.464;2024-01-25T09:39:35;27.55;33.72
78366;HTU21D;67641;59.864;30.464;2024-01-25T09:42:03;27.15;34.82
78366;HTU21D;67641;59.864;30.464;2024-01-25T09:44:30;27.11;35.10
78366;HTU21D;67641;59.864;30.464;2024-01-25T09:46:57;27.05;35.33
78366;HTU21D;67641;59.864;30.464;2024-01-25T09:49:24;26.51;35.97
78366;HTU21D;67641;59.864;30.464;2024-01-25T09:51:51;26.13;36.98
78366;HTU21D;67641;59.864;30.464;2024-01-25T09:54:17;26.26;37.01
78366;HTU21D;67641;59.864;30.464;2024-01-25T09:56:45;26.26;36.42
78366;HTU21D;67641;59.864;30.464;2024-01-25T09:59:12;25.66;37.93
78366;HTU21D;67641;59.864;30.464;2024-01-25T10:01:38;25.53;38.69
78366;HTU21D;67641;59.864;30.464;2024-01-25T10:04:08;25.42;39.62
78366;HTU21D;67641;59.864;30.464;2024-01-25T10:06:35;25.68;38.64
78366;HTU21D;67641;59.864;30.464;2024-01-25T10:09:01;26.02;38.25
78366;HTU21D;67641;59.864;30.464;2024-01-25T10:11:30;25.97;38.53
78366;HTU21D;67641;59.864;30.464;2024-01-25T10:14:01;25.89;39.36
78366;HTU21D;67641;59.864;30.464;2024-01-25T10:16:29;25.78;38.06
78366;HTU21D;67641;59.864;30.464;2024-01-25T10:18:56;26.17;37.73
78366;HTU21D;67641;59.864;30.464;2024-01-25T10:21:22;26.46;37.12
78366;HTU21D;67641;59.864;30.464;2024-01-25T10:23:49;26.68;36.43
78366;HTU21D;67641;59.864;30.464;2024-01-25T10:26:17;27.30;35.44
78366;HTU21D;67641;59.864;30.464;2024-01-25T10:28:52;27.51;34.54
78366;HTU21D;67641;59.864;30.464;2024-01-25T10:31:19;27.16;34.73
78366;HTU21D;67641;59.864;30.464;2024-01-25T10:33:46;26.83;35.52
78366;HTU21D;67641;59.864;30.464;2024-01-25T10:36:13;26.80;36.07
78366;HTU21D;67641;59.864;30.464;2024-01-25T10:38:41;26.64;36.27
78366;HTU21D;67641;59.864;30.464;2024-01-25T10:41:08;26.64;35.47
78366;HTU21D;67641;59.864;30.464;2024-01-25T10:43:35;26.68;35.57
78366;HTU21D;67641;59.864;30.464;2024-01-25T10:46:02;27.05;35.64
78366;HTU21D;67641;59.864;30.464;2024-01-25T10:48:30;26.77;34.60
78366;HTU21D;67641;59.864;30.464;2024-01-25T10:50:59;26.43;34.73
78366;HTU21D;67641;59.864;30.464;2024-01-25T10:53:31;26.16;35.56
78366;HTU21D;67641;59.864;30.464;2024-01-25T10:55:58;26.17;35.81
78366;HTU21D;67641;59.864;30.464;2024-01-25T10:58:33;26.28;35.79
78366;HTU21D;67641;59.864;30.464;2024-01-25T11:01:01;26.54;35.08
78366;HTU21D;67641;59.864;30.464;2024-01-25T11:03:30;26.30;36.13
78366;HTU21D;67641;59.864;30.464;2024-01-25T11:06:09;25.30;38.33
78366;HTU21D;67641;59.864;30.464;2024-01-25T11:08:40;24.30;40.69
78366;HTU21D;67641;59.864;30.464;2024-01-25T11:11:08;23.85;41.70
78366;HTU21D;67641;59.864;30.464;2024-01-25T11:13:39;23.75;41.66
78366;HTU21D;67641;59.864;30.464;2024-01-25T11:18:52;23.14;42.54
78366;HTU21D;67641;59.864;30.464;2024-01-25T11:21:26;22.49;43.92
78366;HTU21D;67641;59.864;30.464;2024-01-25T11:24:03;22.17;45.09
78366;HTU21D;67641;59.864;30.464;2024-01-25T11:26:32;22.06;45.16
78366;HTU21D;67641;59.864;30.464;2024-01-25T11:28:58;22.10;45.45
78366;HTU21D;67641;59.864;30.464;2024-01-25T11:31:28;22.54;44.43
78366;HTU21D;67641;59.864;30.464;2024-01-25T11:33:58;23.36;41.54
78366;HTU21D;67641;59.864;30.464;2024-01-25T11:36:28;23.86;41.17
78366;HTU21D;67641;59.864;30.464;2024-01-25T11:38:54;24.39;39.09
78366;HTU21D;67641;59.864;30.464;2024-01-25T11:41:21;23.79;40.66
78366;HTU21D;67641;59.864;30.464;2024-01-25T11:43:48;23.18;41.36
78366;HTU21D;67641;59.864;30.464;2024-01-25T11:46:16;22.44;42.86
78366;HTU21D;67641;59.864;30.464;2024-01-25T11:48:43;22.36;42.96
78366;HTU21D;67641;59.864;30.464;2024-01-25T11:51:10;22.24;43.37
78366;HTU21D;67641;59.864;30.464;2024-01-25T11:53:40;22.54;43.16
78366;HTU21D;67641;59.864;30.464;2024-01-25T11:56:09;23.52;41.42
78366;HTU21D;67641;59.864;30.464;2024-01-25T11:58:37;23.90;40.52
78366;HTU21D;67641;59.864;30.464;2024-01-25T12:01:05;24.58;39.39
78366;HTU21D;67641;59.864;30.464;2024-01-25T12:03:35;24.98;37.95
78366;HTU21D;67641;59.864;30.464;2024-01-25T12:06:05;25.83;36.50
78366;HTU21D;67641;59.864;30.464;2024-01-25T12:08:33;25.59;36.88
78366;HTU21D;67641;59.864;30.464;2024-01-25T12:11:07;25.39;37.19
78366;HTU21D;67641;59.864;30.464;2024-01-25T12:13:43;25.78;36.59
78366;HTU21D;67641;59.864;30.464;2024-01-25T12:16:11;26.07;36.22
78366;HTU21D;67641;59.864;30.464;2024-01-25T12:18:40;26.07;35.95
78366;HTU21D;67641;59.864;30.464;2024-01-25T12:21:06;25.90;35.89
78366;HTU21D;67641;59.864;30.464;2024-01-25T12:23:34;26.26;35.27
78366;HTU21D;67641;59.864;30.464;2024-01-25T12:26:02;26.52;34.68
78366;HTU21D;67641;59.864;30.464;2024-01-25T12:28:30;25.58;36.58
78366;HTU21D;67641;59.864;30.464;2024-01-25T12:30:57;24.91;38.40
78366;HTU21D;67641;59.864;30.464;2024-01-25T12:33:24;24.87;38.32
78366;HTU21D;67641;59.864;30.464;2024-01-25T12:35:50;24.75;38.49
78366;HTU21D;67641;59.864;30.464;2024-01-25T12:38:17;24.66;38.35
78366;HTU21D;67641;59.864;30.464;2024-01-25T12:40:46;24.39;39.17
78366;HTU21D;67641;59.864;30.464;2024-01-25T12:43:12;23.72;40.37
78366;HTU21D;67641;59.864;30.464;2024-01-25T12:45:39;23.05;41.67
78366;HTU21D;67641;59.864;30.464;2024-01-25T12:48:06;23.08;41.58
78366;HTU21D;67641;59.864;30.464;2024-01-25T12:50:34;23.40;41.03
78366;HTU21D;67641;59.864;30.464;2024-01-25T12:53:01;23.71;40.92
78366;HTU21D;67641;59.864;30.464;2024-01-25T12:55:29;23.86;40.97
78366;HTU21D;67641;59.864;30.464;2024-01-25T12:57:59;23.74;41.16
78366;HTU21D;67641;59.864;30.464;2024-01-25T13:00:26;23.49;41.55
78366;HTU21D;67641;59.864;30.464;2024-01-25T13:02:52;23.62;41.62
78366;HTU21D;67641;59.864;30.464;2024-01-25T13:05:20;24.23;40.24
78366;HTU21D;67641;59.864;30.464;2024-01-25T13:07:47;24.59;39.66
78366;HTU21D;67641;59.864;30.464;2024-01-25T13:10:13;24.20;41.08
78366;HTU21D;67641;59.864;30.464;2024-01-25T13:12:40;24.00;41.68
78366;HTU21D;67641;59.864;30.464;2024-01-25T13:15:07;24.01;41.75
78366;HTU21D;67641;59.864;30.464;2024-01-25T13:17:35;23.99;42.27
78366;HTU21D;67641;59.864;30.464;2024-01-25T13:20:05;24.29;41.41
78366;HTU21D;67641;59.864;30.464;2024-01-25T13:22:34;23.95;42.02
78366;HTU21D;67641;59.864;30.464;2024-01-25T13:25:02;23.73;42.54
78366;HTU21D;67641;59.864;30.464;2024-01-25T13:27:28;23.66;42.79
78366;HTU21D;67641;59.864;30.464;2024-01-25T13:29:55;23.76;42.54
78366;HTU21D;67641;59.864;30.464;2024-01-25T13:32:22;23.35;42.95
78366;HTU21D;67641;59.864;30.464;2024-01-25T13:34:50;22.62;44.57
78366;HTU21D;67641;59.864;30.464;2024-01-25T13:37:16;22.41;45.25
78366;HTU21D;67641;59.864;30.464;2024-01-25T13:39:43;22.08;44.74
78366;HTU21D;67641;59.864;30.464;2024-01-25T13:42:10;21.93;45.27
78366;HTU21D;67641;59.864;30.464;2024-01-25T13:44:36;22.16;45.37
78366;HTU21D;67641;59.864;30.464;2024-01-25T13:47:04;22.53;44.83
78366;HTU21D;67641;59.864;30.464;2024-01-25T13:49:31;22.81;44.08
78366;HTU21D;67641;59.864;30.464;2024-01-25T13:52:00;22.77;44.31
78366;HTU21D;67641;59.864;30.464;2024-01-25T13:54:29;22.49;44.74
78366;HTU21D;67641;59.864;30.464;2024-01-25T13:56:56;22.19;45.73
78366;HTU21D;67641;59.864;30.464;2024-01-25T13:59:23;22.27;45.87
78366;HTU21D;67641;59.864;30.464;2024-01-25T14:01:52;22.09;46.67
78366;HTU21D;67641;59.864;30.464;2024-01-25T14:04:18;21.66;48.10
78366;HTU21D;67641;59.864;30.464;2024-01-25T14:06:45;21.31;48.76
78366;HTU21D;67641;59.864;30.464;2024-01-25T14:09:12;20.87;50.76
78366;HTU21D;67641;59.864;30.464;2024-01-25T14:11:38;20.50;51.39
78366;HTU21D;67641;59.864;30.464;2024-01-25T14:14:05;20.05;52.46
78366;HTU21D;67641;59.864;30.464;2024-01-25T14:16:32;19.62;53.17
78366;HTU21D;67641;59.864;30.464;2024-01-25T14:18:58;19.26;54.51
78366;HTU21D;67641;59.864;30.464;2024-01-25T14:21:25;19.07;54.55
78366;HTU21D;67641;59.864;30.464;2024-01-25T14:23:51;18.87;55.35
78366;HTU21D;67641;59.864;30.464;2024-01-25T14:26:18;18.67;55.82
78366;HTU21D;67641;59.864;30.464;2024-01-25T14:28:45;18.42;56.97
78366;HTU21D;67641;59.864;30.464;2024-01-25T14:31:11;18.35;57.55
78366;HTU21D;67641;59.864;30.464;2024-01-25T14:33:38;18.28;56.93
78366;HTU21D;67641;59.864;30.464;2024-01-25T14:36:04;18.21;58.04
78366;HTU21D;67641;59.864;30.464;2024-01-25T14:38:31;18.18;58.09
78366;HTU21D;67641;59.864;30.464;2024-01-25T14:40:58;18.15;58.29
78366;HTU21D;67641;59.864;30.464;2024-01-25T14:43:25;18.05;58.73
78366;HTU21D;67641;59.864;30.464;2024-01-25T14:45:52;17.98;59.25
78366;HTU21D;67641;59.864;30.464;2024-01-25T14:48:19;17.90;59.01
78366;HTU21D;67641;59.864;30.464;2024-01-25T14:50:46;17.78;60.76
78366;HTU21D;67641;59.864;30.464;2024-01-25T14:53:12;17.68;61.64
78366;HTU21D;67641;59.864;30.464;2024-01-25T14:55:39;17.63;61.64
78366;HTU21D;67641;59.864;30.464;2024-01-25T14:58:05;17.58;62.02
78366;HTU21D;67641;59.864;30.464;2024-01-25T15:00:34;17.62;62.54
78366;HTU21D;67641;59.864;30.464;2024-01-25T15:03:00;17.62;62.50
78366;HTU21D;67641;59.864;30.464;2024-01-25T15:05:27;17.60;62.33